Time;durP1;ratioP1;P1;durP2;ratioP2;P2;SDS_P1;SDS_P2;PMS_P1;PMS_P2;Temp;Humidity;BMP_temperature;BMP_pressure;BME280_temperature;BME280_humidity;BME280_pressure;Samples;Min_cycle;Max_cycle;Signal;HPM_P1;HPM_P2
2022/07/26 00:00:16;;;;;;;5.83;5.23;;;;;;;;;;4980627;28;20207;-80
2022/07/26 00:02:44;;;;;;;4.93;4.53;;;;;;;;;;4965125;28;20228;-80
2022/07/26 00:05:11;;;;;;;5.30;4.47;;;;;;;;;;4980563;28;20270;-79
2022/07/26 00:07:38;;;;;;;5.07;4.57;;;;;;;;;;4998371;28;20207;-79
2022/07/26 00:10:06;;;;;;;4.73;4.37;;;;;;;;;;4980856;28;20208;-80
2022/07/26 00:12:34;;;;;;;6.07;4.20;;;;;;;;;;4998398;28;20741;-80
2022/07/26 00:15:02;;;;;;;4.70;4.30;;;;;;;;;;4964677;28;20208;-81
2022/07/26 00:17:29;;;;;;;4.67;4.13;;;;;;;;;;4998646;28;20542;-80
2022/07/26 00:19:56;;;;;;;4.70;4.37;;;;;;;;;;4981363;28;20290;-80
2022/07/26 00:22:37;;;;;;;5.30;4.80;;;;;;;;;;4964741;28;20211;-81
2022/07/26 00:25:06;;;;;;;4.63;4.33;;;;;;;;;;4983016;28;20207;-80
2022/07/26 00:27:36;;;;;;;5.03;4.63;;;;;;;;;;4998034;28;20233;-80
2022/07/26 00:30:05;;;;;;;4.33;4.03;;;;;;;;;;4998196;28;20258;-80
2022/07/26 00:32:32;;;;;;;4.87;4.43;;;;;;;;;;4998403;28;20227;-80
2022/07/26 00:35:07;;;;;;;4.60;4.30;;;;;;;;;;4995688;28;20200;-81
2022/07/26 00:37:34;;;;;;;4.47;4.17;;;;;;;;;;4994891;28;20207;-80
2022/07/26 00:40:01;;;;;;;4.60;4.20;;;;;;;;;;4977573;28;20733;-80
2022/07/26 00:42:29;;;;;;;5.40;4.50;;;;;;;;;;4977627;28;20558;-80
2022/07/26 00:48:20;;;;;;;4.50;4.13;;;;;;;;;;4995416;28;20222;-80
2022/07/26 00:50:48;;;;;;;4.43;4.13;;;;;;;;;;4994346;28;20204;-79
2022/07/26 00:53:15;;;;;;;5.00;4.43;;;;;;;;;;4995029;28;20204;-80
2022/07/26 00:55:42;;;;;;;5.07;4.67;;;;;;;;;;4994533;28;20216;-80
2022/07/26 00:58:09;;;;;;;5.63;4.60;;;;;;;;;;4994731;28;20228;-82
2022/07/26 01:00:37;;;;;;;22.73;6.17;;;;;;;;;;4994483;28;20204;-79
2022/07/26 01:03:51;;;;;;;15.03;5.83;;;;;;;;;;4994618;28;20201;-79
2022/07/26 01:06:20;;;;;;;7.20;4.93;;;;;;;;;;4949648;28;20204;-80
2022/07/26 01:08:47;;;;;;;42.03;8.77;;;;;;;;;;4977158;28;20679;-79
2022/07/26 01:11:15;;;;;;;32.17;7.27;;;;;;;;;;4977274;28;20599;-79
2022/07/26 01:13:46;;;;;;;8.70;5.07;;;;;;;;;;4994367;28;20666;-79
2022/07/26 01:16:13;;;;;;;6.73;4.63;;;;;;;;;;4994003;28;20212;-80
2022/07/26 01:18:40;;;;;;;4.70;4.23;;;;;;;;;;4976797;28;20224;-80
2022/07/26 01:21:09;;;;;;;8.23;4.70;;;;;;;;;;4961635;28;20200;-80
2022/07/26 01:23:38;;;;;;;6.63;4.60;;;;;;;;;;4977017;28;20211;-80
2022/07/26 01:26:06;;;;;;;4.70;4.33;;;;;;;;;;4975718;28;20208;-80
2022/07/26 01:31:57;;;;;;;5.20;4.70;;;;;;;;;;4994538;28;20629;-79
2022/07/26 01:34:24;;;;;;;4.80;4.30;;;;;;;;;;4994396;28;20227;-80
2022/07/26 01:36:53;;;;;;;5.40;4.63;;;;;;;;;;4960964;28;20207;-80
2022/07/26 01:39:21;;;;;;;5.77;4.57;;;;;;;;;;4994098;28;20271;-80
2022/07/26 01:41:48;;;;;;;4.63;4.23;;;;;;;;;;4993960;28;20200;-80
2022/07/26 01:44:15;;;;;;;4.57;4.17;;;;;;;;;;4993821;28;20204;-80
2022/07/26 01:46:42;;;;;;;6.63;4.50;;;;;;;;;;4976102;28;20204;-81
2022/07/26 01:49:09;;;;;;;4.63;4.23;;;;;;;;;;4994553;28;20196;-80
2022/07/26 01:51:42;;;;;;;4.50;4.10;;;;;;;;;;4993716;28;20200;-80
2022/07/26 01:54:09;;;;;;;4.50;4.10;;;;;;;;;;4993983;28;20192;-80
2022/07/26 01:56:37;;;;;;;5.83;4.13;;;;;;;;;;4993838;28;20285;-80
2022/07/26 01:59:04;;;;;;;4.83;4.50;;;;;;;;;;4993086;28;20220;-80
2022/07/26 02:01:32;;;;;;;5.07;4.00;;;;;;;;;;4976532;28;20201;-80
2022/07/26 02:04:00;;;;;;;4.97;4.53;;;;;;;;;;4976176;28;20211;-79
2022/07/26 02:06:27;;;;;;;5.83;4.87;;;;;;;;;;4976163;28;20284;-80
2022/07/26 02:08:54;;;;;;;5.63;5.00;;;;;;;;;;4993744;28;20195;-80
2022/07/26 02:11:22;;;;;;;9.00;4.90;;;;;;;;;;4975977;28;20211;-80
2022/07/26 02:13:50;;;;;;;5.33;4.90;;;;;;;;;;4976110;28;20256;-80
2022/07/26 02:16:18;;;;;;;8.00;5.17;;;;;;;;;;4976219;28;20208;-80
2022/07/26 02:18:45;;;;;;;5.03;4.47;;;;;;;;;;4993203;28;20227;-80
2022/07/26 02:21:12;;;;;;;14.63;5.53;;;;;;;;;;4993184;28;20204;-80
2022/07/26 02:23:39;;;;;;;6.33;5.10;;;;;;;;;;4975871;28;20675;-80
2022/07/26 02:26:06;;;;;;;5.33;4.93;;;;;;;;;;4992929;28;20215;-80
2022/07/26 02:28:34;;;;;;;8.47;5.13;;;;;;;;;;4960122;28;20690;-80
2022/07/26 02:31:02;;;;;;;6.73;4.60;;;;;;;;;;4975723;28;20204;-80
2022/07/26 02:33:29;;;;;;;5.40;4.90;;;;;;;;;;4993075;28;20230;-80
2022/07/26 02:35:56;;;;;;;8.23;5.00;;;;;;;;;;4975857;28;20274;-80
2022/07/26 02:38:23;;;;;;;6.10;5.40;;;;;;;;;;4975327;28;20675;-80
2022/07/26 02:40:51;;;;;;;5.83;5.33;;;;;;;;;;4975437;28;20305;-80
2022/07/26 02:43:18;;;;;;;11.23;6.00;;;;;;;;;;4975313;28;20266;-80
2022/07/26 02:45:45;;;;;;;6.90;5.23;;;;;;;;;;4992741;28;20306;-80
2022/07/26 02:48:14;;;;;;;6.40;5.70;;;;;;;;;;4968288;28;20263;-80
2022/07/26 02:50:41;;;;;;;6.83;6.13;;;;;;;;;;4992786;28;20578;-81
2022/07/26 02:53:08;;;;;;;10.50;6.20;;;;;;;;;;4975638;28;20213;-80
2022/07/26 02:55:35;;;;;;;6.37;5.87;;;;;;;;;;4991629;28;20208;-80
2022/07/26 02:58:02;;;;;;;6.30;5.50;;;;;;;;;;4974232;28;20733;-80
2022/07/26 03:00:30;;;;;;;6.73;5.63;;;;;;;;;;4959212;28;20220;-80
2022/07/26 03:03:12;;;;;;;13.37;5.80;;;;;;;;;;4992301;28;20192;-79
2022/07/26 03:05:41;;;;;;;6.57;5.97;;;;;;;;;;4993021;28;20204;-79
2022/07/26 03:08:08;;;;;;;7.20;6.03;;;;;;;;;;4991609;28;20204;-79
2022/07/26 03:10:35;;;;;;;9.87;6.10;;;;;;;;;;4992459;28;20200;-80
2022/07/26 03:13:02;;;;;;;6.77;6.17;;;;;;;;;;4992297;28;20200;-80
2022/07/26 03:15:30;;;;;;;6.60;6.10;;;;;;;;;;4992436;28;20200;-80
2022/07/26 03:17:57;;;;;;;6.73;6.13;;;;;;;;;;4974938;28;20211;-79
2022/07/26 03:20:24;;;;;;;11.70;6.83;;;;;;;;;;4992639;28;20234;-79
2022/07/26 03:22:53;;;;;;;14.83;7.27;;;;;;;;;;4974519;28;20679;-81
2022/07/26 03:25:20;;;;;;;10.17;6.47;;;;;;;;;;4992467;28;20698;-80
2022/07/26 03:27:47;;;;;;;7.27;6.57;;;;;;;;;;4975006;28;20578;-80
2022/07/26 03:30:14;;;;;;;8.40;5.43;;;;;;;;;;4974465;28;20215;-80
2022/07/26 03:32:42;;;;;;;8.07;6.53;;;;;;;;;;4974696;28;20432;-79
2022/07/26 03:35:09;;;;;;;7.27;6.57;;;;;;;;;;4975029;28;20218;-80
2022/07/26 03:37:37;;;;;;;8.17;6.47;;;;;;;;;;4974915;28;20211;-80
2022/07/26 03:40:07;;;;;;;6.83;6.20;;;;;;;;;;4975351;28;20230;-81
2022/07/26 03:42:34;;;;;;;8.87;6.30;;;;;;;;;;4991965;28;20200;-82
2022/07/26 03:45:02;;;;;;;7.40;6.47;;;;;;;;;;4992067;28;20248;-81
2022/07/26 03:47:29;;;;;;;8.53;6.17;;;;;;;;;;4992521;28;20199;-81
2022/07/26 03:49:56;;;;;;;9.13;7.33;;;;;;;;;;4958609;28;20200;-81
2022/07/26 03:52:23;;;;;;;28.67;8.67;;;;;;;;;;4975186;28;20200;-80
2022/07/26 03:54:50;;;;;;;10.67;6.40;;;;;;;;;;4973545;28;20200;-80
2022/07/26 03:57:17;;;;;;;12.00;7.17;;;;;;;;;;4993354;28;20200;-80
2022/07/26 03:59:44;;;;;;;12.47;6.47;;;;;;;;;;4993471;28;20311;-81
2022/07/26 04:02:12;;;;;;;6.53;5.93;;;;;;;;;;4977904;28;20213;-81
2022/07/26 04:04:39;;;;;;;6.90;6.20;;;;;;;;;;4994302;28;20290;-81
2022/07/26 04:07:06;;;;;;;7.07;6.20;;;;;;;;;;4978004;28;20195;-80
2022/07/26 04:09:43;;;;;;;7.93;7.13;;;;;;;;;;4979937;28;20261;-78
2022/07/26 04:12:10;;;;;;;8.90;6.60;;;;;;;;;;5011925;28;20198;-80
2022/07/26 04:14:41;;;;;;;9.27;6.33;;;;;;;;;;4997636;28;20586;-81
2022/07/26 04:17:08;;;;;;;7.40;6.53;;;;;;;;;;5015243;28;20209;-80
2022/07/26 04:19:35;;;;;;;9.93;6.57;;;;;;;;;;4997689;28;20230;-80
2022/07/26 04:22:03;;;;;;;13.90;6.90;;;;;;;;;;4997364;28;20577;-80
2022/07/26 04:24:30;;;;;;;11.20;7.20;;;;;;;;;;4977726;28;20697;-80
2022/07/26 04:26:57;;;;;;;7.70;6.80;;;;;;;;;;4976555;28;20200;-81
2022/07/26 04:29:24;;;;;;;7.27;6.53;;;;;;;;;;4995476;28;20207;-80
2022/07/26 04:31:53;;;;;;;7.30;6.60;;;;;;;;;;4997742;28;20203;-80
2022/07/26 04:34:20;;;;;;;8.27;7.30;;;;;;;;;;5015128;28;20238;-80
2022/07/26 04:36:47;;;;;;;8.40;7.07;;;;;;;;;;5014700;28;20195;-80
2022/07/26 04:39:14;;;;;;;10.83;7.47;;;;;;;;;;4997747;28;20199;-79
2022/07/26 04:41:41;;;;;;;13.23;7.63;;;;;;;;;;4997064;28;20210;-80
2022/07/26 04:44:08;;;;;;;10.27;8.23;;;;;;;;;;4981440;28;20207;-80
2022/07/26 04:46:35;;;;;;;14.37;8.83;;;;;;;;;;4997235;28;20670;-80
2022/07/26 04:49:03;;;;;;;9.03;8.13;;;;;;;;;;4986148;28;20196;-80
2022/07/26 04:51:30;;;;;;;13.00;8.97;;;;;;;;;;4999774;28;20805;-79
2022/07/26 04:53:57;;;;;;;8.87;8.03;;;;;;;;;;5014790;28;20290;-81
2022/07/26 04:56:24;;;;;;;9.10;8.23;;;;;;;;;;5012791;28;20203;-80
2022/07/26 04:58:51;;;;;;;9.33;8.20;;;;;;;;;;5007109;28;20586;-80
2022/07/26 05:01:17;;;;;;;9.53;8.77;;;;;;;;;;4994165;28;20235;-80
2022/07/26 05:03:44;;;;;;;8.37;7.67;;;;;;;;;;4993653;28;20200;-79
2022/07/26 05:06:12;;;;;;;12.27;8.43;;;;;;;;;;4993823;28;20200;-80
2022/07/26 05:08:40;;;;;;;9.37;8.40;;;;;;;;;;4976905;28;20228;-79
2022/07/26 05:11:07;;;;;;;13.60;8.53;;;;;;;;;;4993176;28;20196;-78
2022/07/26 05:13:34;;;;;;;9.00;8.10;;;;;;;;;;4994316;28;20211;-80
2022/07/26 05:16:01;;;;;;;8.60;7.60;;;;;;;;;;5010600;28;20211;-79
2022/07/26 05:18:28;;;;;;;8.23;7.63;;;;;;;;;;5014126;28;20203;-79
2022/07/26 05:24:20;;;;;;;8.53;7.80;;;;;;;;;;5014336;28;20167;-80
2022/07/26 05:26:47;;;;;;;9.53;7.40;;;;;;;;;;5013752;28;20696;-80
2022/07/26 05:29:14;;;;;;;8.57;7.77;;;;;;;;;;5013985;28;20207;-80
2022/07/26 05:31:40;;;;;;;8.33;7.57;;;;;;;;;;5014249;28;20210;-80
2022/07/26 05:34:07;;;;;;;8.70;7.90;;;;;;;;;;5011241;28;20234;-80
2022/07/26 05:36:34;;;;;;;8.20;7.40;;;;;;;;;;5012256;28;20705;-79
2022/07/26 05:39:01;;;;;;;8.97;7.50;;;;;;;;;;5012111;28;20199;-79
2022/07/26 05:41:29;;;;;;;8.13;7.10;;;;;;;;;;5011512;28;20233;-80
2022/07/26 05:43:57;;;;;;;15.00;8.77;;;;;;;;;;5012030;28;20210;-79
2022/07/26 05:46:24;;;;;;;7.40;6.83;;;;;;;;;;5013439;28;20238;-79
2022/07/26 05:48:51;;;;;;;7.43;6.83;;;;;;;;;;5012016;28;20210;-79
2022/07/26 05:51:18;;;;;;;7.17;6.50;;;;;;;;;;5005042;28;20570;-80
2022/07/26 05:53:44;;;;;;;8.93;6.67;;;;;;;;;;5001794;28;20199;-80
2022/07/26 05:56:11;;;;;;;7.30;6.63;;;;;;;;;;4994113;28;20208;-80
2022/07/26 05:58:39;;;;;;;7.73;6.67;;;;;;;;;;4998733;28;20204;-79
2022/07/26 06:01:06;;;;;;;7.00;6.33;;;;;;;;;;5012536;28;20231;-79
2022/07/26 06:03:33;;;;;;;8.77;6.97;;;;;;;;;;5011815;28;20681;-80
2022/07/26 06:06:00;;;;;;;9.50;7.23;;;;;;;;;;5013036;28;20241;-80
2022/07/26 06:08:27;;;;;;;6.90;6.30;;;;;;;;;;5011068;28;20207;-88
2022/07/26 06:10:54;;;;;;;7.87;7.07;;;;;;;;;;4994388;28;20204;-86
2022/07/26 06:13:22;;;;;;;7.13;6.43;;;;;;;;;;4992955;28;20294;-86
2022/07/26 06:15:51;;;;;;;6.90;6.30;;;;;;;;;;4995892;28;20215;-83
2022/07/26 06:18:18;;;;;;;6.50;5.90;;;;;;;;;;4982788;28;20203;-80
2022/07/26 06:20:47;;;;;;;7.00;6.27;;;;;;;;;;5011717;28;20716;-80
2022/07/26 06:23:14;;;;;;;6.97;6.27;;;;;;;;;;5012584;28;20211;-80
2022/07/26 06:25:41;;;;;;;6.63;6.07;;;;;;;;;;5011316;28;20195;-83
2022/07/26 06:28:10;;;;;;;6.53;6.03;;;;;;;;;;4978874;28;20207;-82
2022/07/26 06:30:37;;;;;;;8.33;6.70;;;;;;;;;;4994399;28;20265;-89
2022/07/26 06:33:06;;;;;;;7.37;6.60;;;;;;;;;;5010722;28;20234;-80
2022/07/26 06:35:34;;;;;;;7.90;7.10;;;;;;;;;;5011775;28;20230;-82
2022/07/26 06:38:03;;;;;;;8.10;6.30;;;;;;;;;;5012785;28;20203;-82
2022/07/26 06:40:30;;;;;;;6.60;6.07;;;;;;;;;;5001777;28;20590;-78
2022/07/26 06:42:57;;;;;;;6.28;5.78;;;;;;;;;;5011114;28;20665;-82
2022/07/26 06:45:24;;;;;;;7.10;6.50;;;;;;;;;;4993796;28;20199;-80
2022/07/26 06:47:52;;;;;;;7.22;6.32;;;;;;;;;;4979379;28;20281;-80
2022/07/26 06:50:20;;;;;;;8.35;6.82;;;;;;;;;;4978783;28;20678;-78
2022/07/26 06:52:47;;;;;;;6.93;6.43;;;;;;;;;;4994929;28;20208;-80
2022/07/26 06:55:14;;;;;;;7.35;6.65;;;;;;;;;;4994649;28;20214;-84
2022/07/26 06:57:42;;;;;;;7.07;6.38;;;;;;;;;;4995114;28;20642;-85
2022/07/26 07:00:10;;;;;;;7.70;7.10;;;;;;;;;;4994697;28;20695;-79
2022/07/26 07:02:37;;;;;;;6.78;6.28;;;;;;;;;;5012000;28;20555;-85
2022/07/26 07:05:05;;;;;;;6.63;6.03;;;;;;;;;;5012434;28;20257;-83
2022/07/26 07:07:35;;;;;;;7.35;6.75;;;;;;;;;;4994720;28;20737;-84
2022/07/26 07:10:03;;;;;;;8.95;6.75;;;;;;;;;;4994916;28;20211;-79
2022/07/26 07:12:30;;;;;;;8.35;7.35;;;;;;;;;;5009579;28;20203;-83
2022/07/26 07:14:57;;;;;;;8.25;6.75;;;;;;;;;;4978938;28;20651;-84
2022/07/26 07:17:25;;;;;;;9.43;6.70;;;;;;;;;;4973186;28;20282;-86
2022/07/26 07:19:52;;;;;;;7.45;6.78;;;;;;;;;;4992466;28;20208;-82
2022/07/26 07:22:19;;;;;;;8.57;7.53;;;;;;;;;;4992594;28;20200;-83
2022/07/26 07:24:48;;;;;;;8.73;7.95;;;;;;;;;;4966302;28;20203;-83
2022/07/26 07:27:15;;;;;;;8.10;7.40;;;;;;;;;;4993537;28;20207;-84
2022/07/26 07:29:42;;;;;;;7.22;6.72;;;;;;;;;;5009896;28;20207;-84
2022/07/26 07:32:09;;;;;;;7.40;6.75;;;;;;;;;;5010218;28;20211;-80
2022/07/26 07:34:36;;;;;;;7.47;6.80;;;;;;;;;;4994204;28;20196;-80
2022/07/26 07:37:03;;;;;;;9.02;6.75;;;;;;;;;;4992799;28;20203;-79
2022/07/26 07:39:30;;;;;;;7.50;6.85;;;;;;;;;;5011704;28;20199;-78
2022/07/26 07:45:20;;;;;;;9.00;7.35;;;;;;;;;;5014828;28;20155;-80
2022/07/26 07:47:47;;;;;;;10.68;7.93;;;;;;;;;;4998592;28;20203;-83
2022/07/26 07:50:14;;;;;;;9.60;8.10;;;;;;;;;;5015541;28;20207;-81
2022/07/26 07:52:42;;;;;;;11.48;7.55;;;;;;;;;;4982039;28;20257;-80
2022/07/26 07:55:10;;;;;;;8.32;7.57;;;;;;;;;;4982337;28;20195;-83
2022/07/26 07:57:37;;;;;;;7.85;7.25;;;;;;;;;;4998617;28;20761;-84
2022/07/26 08:00:06;;;;;;;7.93;7.22;;;;;;;;;;5015471;28;20295;-92
2022/07/26 08:02:35;;;;;;;7.78;7.10;;;;;;;;;;5016432;28;20207;-90
2022/07/26 08:05:03;;;;;;;8.95;8.00;;;;;;;;;;5015682;28;20269;-87
2022/07/26 08:07:30;;;;;;;7.85;6.80;;;;;;;;;;4982403;28;20203;-87
2022/07/26 08:09:58;;;;;;;7.15;6.53;;;;;;;;;;4998836;28;20761;-86
2022/07/26 08:12:25;;;;;;;8.95;6.93;;;;;;;;;;4997656;28;20709;-79
2022/07/26 08:14:52;;;;;;;7.47;6.80;;;;;;;;;;4995701;28;20196;-79
2022/07/26 08:17:20;;;;;;;7.93;7.10;;;;;;;;;;5015158;28;20670;-77
2022/07/26 08:19:48;;;;;;;7.82;7.05;;;;;;;;;;4981242;28;20202;-80
2022/07/26 08:22:15;;;;;;;8.30;7.15;;;;;;;;;;4997790;28;20234;-87
2022/07/26 08:24:44;;;;;;;7.93;7.10;;;;;;;;;;4981017;28;20195;-83
2022/07/26 08:27:11;;;;;;;7.57;6.75;;;;;;;;;;5014743;28;20207;-85
2022/07/26 08:29:38;;;;;;;7.63;6.93;;;;;;;;;;5014902;28;20566;-83
2022/07/26 08:32:07;;;;;;;7.70;7.00;;;;;;;;;;5014857;28;20214;-84
2022/07/26 08:34:34;;;;;;;10.88;7.05;;;;;;;;;;5014720;28;20207;-83
2022/07/26 08:37:03;;;;;;;10.25;6.50;;;;;;;;;;4997405;28;20612;-83
2022/07/26 08:39:30;;;;;;;7.35;6.75;;;;;;;;;;5015096;28;20207;-85
2022/07/26 08:41:58;;;;;;;9.48;6.40;;;;;;;;;;4982466;28;20689;-87
2022/07/26 08:47:47;;;;;;;9.27;6.40;;;;;;;;;;5015502;28;20225;-88
2022/07/26 08:50:14;;;;;;;9.57;6.57;;;;;;;;;;4997460;28;20203;-86
2022/07/26 08:52:43;;;;;;;7.78;6.53;;;;;;;;;;5015356;28;20285;-87
2022/07/26 08:55:11;;;;;;;6.90;6.20;;;;;;;;;;4980465;28;20207;-85
2022/07/26 08:57:37;;;;;;;7.35;6.45;;;;;;;;;;5013942;28;20203;-82
2022/07/26 09:00:14;;;;;;;7.40;6.90;;;;;;;;;;5014947;28;20199;-81
2022/07/26 09:02:42;;;;;;;7.45;6.75;;;;;;;;;;5014310;28;20226;-81
2022/07/26 09:05:09;;;;;;;8.45;6.57;;;;;;;;;;5014572;28;20238;-81
2022/07/26 09:07:38;;;;;;;7.78;7.18;;;;;;;;;;4997013;28;20203;-79
2022/07/26 09:10:09;;;;;;;7.03;6.43;;;;;;;;;;5015331;28;20202;-85
2022/07/26 09:12:36;;;;;;;7.85;7.13;;;;;;;;;;4997351;28;20211;-79
2022/07/26 09:15:06;;;;;;;9.65;6.38;;;;;;;;;;4996552;28;20686;-87
2022/07/26 09:17:40;;;;;;;8.13;7.43;;;;;;;;;;5014008;28;20261;-81
2022/07/26 09:23:39;;;;;;;7.18;6.60;;;;;;;;;;5014280;28;20533;-76
2022/07/26 09:26:07;;;;;;;14.02;7.68;;;;;;;;;;5014034;28;20199;-81
2022/07/26 09:28:34;;;;;;;8.35;6.78;;;;;;;;;;5013761;28;20211;-83
2022/07/26 09:34:25;;;;;;;8.13;6.75;;;;;;;;;;5005091;28;20693;-85
2022/07/26 09:36:54;;;;;;;7.47;6.88;;;;;;;;;;5015359;28;20239;-94
2022/07/26 09:39:32;;;;;;;6.97;6.32;;;;;;;;;;5017635;28;20262;-93
2022/07/26 09:42:06;;;;;;;6.88;6.22;;;;;;;;;;5002208;28;20250;-84
2022/07/26 09:44:40;;;;;;;6.28;5.72;;;;;;;;;;5015062;28;20198;-89
2022/07/26 09:47:08;;;;;;;7.03;6.40;;;;;;;;;;4997521;28;20203;-88
2022/07/26 09:49:35;;;;;;;7.10;5.93;;;;;;;;;;4980490;28;20207;-89
2022/07/26 09:52:02;;;;;;;6.75;6.15;;;;;;;;;;4996750;28;20627;-92
2022/07/26 09:54:34;;;;;;;7.57;6.88;;;;;;;;;;5013045;28;20199;-87
2022/07/26 09:57:03;;;;;;;7.30;6.70;;;;;;;;;;4996410;28;20203;-85
2022/07/26 09:59:30;;;;;;;7.22;6.63;;;;;;;;;;5013889;28;20199;-87
2022/07/26 10:02:00;;;;;;;7.50;6.72;;;;;;;;;;4997592;28;20246;-86
2022/07/26 10:07:48;;;;;;;8.07;6.75;;;;;;;;;;5016355;28;20186;-95
2022/07/26 10:10:20;;;;;;;5.90;5.50;;;;;;;;;;5016325;28;20207;-92
2022/07/26 10:12:50;;;;;;;6.72;6.22;;;;;;;;;;5018846;28;20203;-93
2022/07/26 10:15:38;;;;;;;11.32;6.55;;;;;;;;;;4987924;28;20218;-93
2022/07/26 10:18:07;;;;;;;7.22;5.53;;;;;;;;;;5018893;28;20234;-96
2022/07/26 10:20:45;;;;;;;7.65;6.32;;;;;;;;;;5016142;28;20203;-94
2022/07/26 10:23:48;;;;;;;7.30;6.65;;;;;;;;;;5015615;28;20238;-88
2022/07/26 10:26:37;;;;;;;6.78;6.13;;;;;;;;;;5013303;28;20245;-88
2022/07/26 10:32:16;;;;;;;5.82;5.43;;;;;;;;;;5096234;27;1451618;-86
2022/07/26 10:34:45;;;;;;;6.20;5.70;;;;;;;;;;5130456;28;20653;-88
2022/07/26 10:37:21;;;;;;;6.93;6.30;;;;;;;;;;5132555;28;20541;-88
2022/07/26 10:39:48;;;;;;;6.43;6.00;;;;;;;;;;5130658;28;20249;-88
2022/07/26 10:42:14;;;;;;;6.50;6.00;;;;;;;;;;5121655;28;20199;-93
2022/07/26 10:44:45;;;;;;;6.25;5.75;;;;;;;;;;5127823;28;20196;-96
2022/07/26 10:47:18;;;;;;;6.25;5.75;;;;;;;;;;5124786;28;20207;-86
2022/07/26 10:49:55;;;;;;;6.28;5.70;;;;;;;;;;5116163;28;20264;-89
2022/07/26 10:52:23;;;;;;;8.23;5.65;;;;;;;;;;5127774;28;20275;-86
2022/07/26 10:55:18;;;;;;;6.30;5.88;;;;;;;;;;5129197;28;20195;-86
2022/07/26 10:57:47;;;;;;;8.02;6.18;;;;;;;;;;5130205;28;20195;-86
2022/07/26 11:00:23;;;;;;;6.68;6.05;;;;;;;;;;5130072;28;20213;-89
2022/07/26 11:02:55;;;;;;;6.68;5.85;;;;;;;;;;5131010;28;20209;-88
2022/07/26 11:05:27;;;;;;;6.22;5.63;;;;;;;;;;5130218;28;20190;-87
2022/07/26 11:07:56;;;;;;;6.20;5.60;;;;;;;;;;5128687;28;20191;-86
2022/07/26 11:10:29;;;;;;;6.68;6.07;;;;;;;;;;5109789;28;20219;-93
2022/07/26 11:13:15;;;;;;;6.40;6.00;;;;;;;;;;5118150;28;20203;-95
2022/07/26 11:15:44;;;;;;;8.05;6.00;;;;;;;;;;5124608;28;20195;-92
2022/07/26 11:18:26;;;;;;;6.35;5.78;;;;;;;;;;5108729;28;20199;-94
2022/07/26 11:20:57;;;;;;;6.25;5.80;;;;;;;;;;5111875;28;20203;-95
2022/07/26 11:23:32;;;;;;;6.53;6.00;;;;;;;;;;5130290;28;20202;-93
2022/07/26 11:26:09;;;;;;;5.70;5.30;;;;;;;;;;5126571;28;20198;-91
2022/07/26 11:28:54;;;;;;;7.95;5.38;;;;;;;;;;5110405;28;20247;-95
2022/07/26 11:31:24;;;;;;;6.35;5.82;;;;;;;;;;5128983;28;20279;-95
2022/07/26 11:33:53;;;;;;;6.47;5.93;;;;;;;;;;5119299;28;20199;-94
2022/07/26 11:36:32;;;;;;;6.10;5.60;;;;;;;;;;5129416;28;20218;-93
2022/07/26 11:38:59;;;;;;;5.88;5.47;;;;;;;;;;5128180;28;20600;-95
2022/07/26 11:41:28;;;;;;;6.40;5.90;;;;;;;;;;5127707;28;20253;-92
2022/07/26 11:43:56;;;;;;;6.15;5.65;;;;;;;;;;5098337;28;20290;-87
2022/07/26 11:46:24;;;;;;;7.68;5.55;;;;;;;;;;5115740;28;20222;-93
2022/07/26 11:48:54;;;;;;;5.85;5.22;;;;;;;;;;5093813;28;20210;-91
2022/07/26 11:51:23;;;;;;;5.85;5.35;;;;;;;;;;5097595;28;20283;-92
2022/07/26 11:53:58;;;;;;;6.57;6.07;;;;;;;;;;5110601;28;20207;-93
2022/07/26 11:56:26;;;;;;;6.38;5.75;;;;;;;;;;5088048;28;20222;-90
2022/07/26 11:58:55;;;;;;;6.30;5.90;;;;;;;;;;5115831;28;20203;-91
2022/07/26 12:01:23;;;;;;;7.93;6.88;;;;;;;;;;5082490;28;20207;-91
2022/07/26 12:03:51;;;;;;;6.88;5.45;;;;;;;;;;5112415;28;20204;-93
2022/07/26 12:06:21;;;;;;;6.38;5.82;;;;;;;;;;5096765;28;20192;-92
2022/07/26 12:08:49;;;;;;;5.78;5.35;;;;;;;;;;5115708;28;20195;-93
2022/07/26 12:11:17;;;;;;;7.22;5.95;;;;;;;;;;5106664;28;20226;-92
2022/07/26 12:13:58;;;;;;;6.30;5.88;;;;;;;;;;5086408;28;20296;-92
2022/07/26 12:16:39;;;;;;;6.38;5.70;;;;;;;;;;5084964;28;20263;-92
2022/07/26 12:19:09;;;;;;;5.32;4.93;;;;;;;;;;5096048;28;20302;-90
2022/07/26 12:21:44;;;;;;;6.63;6.03;;;;;;;;;;5109588;28;20216;-88
2022/07/26 12:24:12;;;;;;;6.20;5.70;;;;;;;;;;5089604;28;20620;-87
2022/07/26 12:26:40;;;;;;;5.68;5.18;;;;;;;;;;5111272;28;20203;-84
2022/07/26 12:29:26;;;;;;;6.18;5.57;;;;;;;;;;5113322;28;20198;-95
2022/07/26 12:32:07;;;;;;;5.57;5.10;;;;;;;;;;5099789;28;20239;-88
2022/07/26 12:34:34;;;;;;;5.80;5.40;;;;;;;;;;5105821;28;20197;-89
2022/07/26 12:37:15;;;;;;;6.03;5.43;;;;;;;;;;5077417;28;20202;-83
2022/07/26 12:39:45;;;;;;;5.63;5.22;;;;;;;;;;5108840;28;20199;-86
2022/07/26 12:42:24;;;;;;;6.43;6.03;;;;;;;;;;5112898;28;20290;-90
2022/07/26 12:44:52;;;;;;;6.15;5.63;;;;;;;;;;5115337;28;20198;-90
2022/07/26 12:47:19;;;;;;;7.55;6.20;;;;;;;;;;5112671;28;20208;-85
2022/07/26 12:49:46;;;;;;;6.53;6.07;;;;;;;;;;5110440;28;20208;-82
2022/07/26 12:52:16;;;;;;;6.80;5.78;;;;;;;;;;5100403;28;20223;-82
2022/07/26 12:54:45;;;;;;;6.30;5.78;;;;;;;;;;5113246;28;20191;-91
2022/07/26 12:57:12;;;;;;;6.45;5.85;;;;;;;;;;5113487;28;20223;-88
2022/07/26 12:59:40;;;;;;;5.22;4.90;;;;;;;;;;5082710;28;20222;-89
2022/07/26 13:02:07;;;;;;;10.43;6.22;;;;;;;;;;5080244;28;20192;-84
2022/07/26 13:04:34;;;;;;;5.50;5.10;;;;;;;;;;5113010;28;20196;-88
2022/07/26 13:07:01;;;;;;;7.75;5.80;;;;;;;;;;5114938;28;20195;-88
2022/07/26 13:09:31;;;;;;;6.20;5.55;;;;;;;;;;5112558;28;20202;-88
2022/07/26 13:12:01;;;;;;;6.20;5.70;;;;;;;;;;5112264;28;20231;-86
2022/07/26 13:14:28;;;;;;;6.32;5.55;;;;;;;;;;5112655;28;20191;-89
2022/07/26 13:16:56;;;;;;;6.68;6.10;;;;;;;;;;5115103;28;20202;-88
2022/07/26 13:19:23;;;;;;;6.38;5.32;;;;;;;;;;5113917;28;20196;-90
2022/07/26 13:21:50;;;;;;;5.75;5.28;;;;;;;;;;5096424;28;20580;-89
2022/07/26 13:24:17;;;;;;;5.97;5.47;;;;;;;;;;5074332;28;20196;-84
2022/07/26 13:26:45;;;;;;;5.90;5.40;;;;;;;;;;5110196;28;20220;-85
2022/07/26 13:29:13;;;;;;;6.82;5.70;;;;;;;;;;5106738;28;20196;-84
2022/07/26 13:31:39;;;;;;;6.10;5.60;;;;;;;;;;5085350;28;20231;-85
2022/07/26 13:34:06;;;;;;;8.82;5.45;;;;;;;;;;5100649;28;20697;-86
2022/07/26 13:36:33;;;;;;;6.28;5.78;;;;;;;;;;5103654;28;20196;-85
2022/07/26 13:39:01;;;;;;;7.03;5.05;;;;;;;;;;5078092;28;20697;-88
2022/07/26 13:41:29;;;;;;;5.40;5.00;;;;;;;;;;5105136;28;20196;-90
2022/07/26 13:43:58;;;;;;;6.28;5.63;;;;;;;;;;5095910;28;20195;-92
2022/07/26 13:46:28;;;;;;;6.05;5.50;;;;;;;;;;5097182;28;20207;-93
2022/07/26 13:48:56;;;;;;;6.32;5.82;;;;;;;;;;5114677;28;20233;-89
2022/07/26 13:51:55;;;;;;;5.57;5.18;;;;;;;;;;5113406;28;20322;-96
2022/07/26 13:54:12;;;;;;;6.55;6.05;;;;;;;;;;5091087;28;20650;-86
2022/07/26 13:56:39;;;;;;;6.13;5.63;;;;;;;;;;5106648;28;20238;-94
2022/07/26 13:59:08;;;;;;;5.93;5.43;;;;;;;;;;5114547;28;20203;-92
2022/07/26 14:01:35;;;;;;;7.72;6.15;;;;;;;;;;5081748;28;20204;-88
2022/07/26 14:04:03;;;;;;;6.10;5.55;;;;;;;;;;5095356;28;20191;-95
2022/07/26 14:06:30;;;;;;;6.60;5.97;;;;;;;;;;5113811;28;20207;-95
2022/07/26 14:08:57;;;;;;;6.25;5.72;;;;;;;;;;5102556;28;20200;-89
2022/07/26 14:11:25;;;;;;;6.20;5.70;;;;;;;;;;5092656;28;20216;-93
2022/07/26 14:13:51;;;;;;;6.13;5.63;;;;;;;;;;5092277;28;20204;-85
2022/07/26 14:16:20;;;;;;;6.20;5.70;;;;;;;;;;5092345;28;20195;-92
2022/07/26 14:18:48;;;;;;;5.97;5.47;;;;;;;;;;5112078;28;20199;-82
2022/07/26 14:21:15;;;;;;;9.80;6.82;;;;;;;;;;5101129;28;20239;-86
2022/07/26 14:23:42;;;;;;;6.05;5.55;;;;;;;;;;5091658;28;20192;-89
2022/07/26 14:26:09;;;;;;;6.43;5.47;;;;;;;;;;5098164;28;20200;-91
2022/07/26 14:28:36;;;;;;;6.35;5.82;;;;;;;;;;5104809;28;20649;-85
2022/07/26 14:31:03;;;;;;;5.90;4.97;;;;;;;;;;5090093;28;20234;-89
2022/07/26 14:33:32;;;;;;;9.35;5.53;;;;;;;;;;5076755;28;20191;-87
2022/07/26 14:35:59;;;;;;;6.05;5.45;;;;;;;;;;5103824;28;20196;-88
2022/07/26 14:38:27;;;;;;;9.18;5.53;;;;;;;;;;5087775;28;20586;-90
2022/07/26 14:47:38;;;;;;;5.53;5.13;;;;;;;;;;5085539;28;20564;-93
2022/07/26 14:50:10;;;;;;;7.22;5.68;;;;;;;;;;5073260;28;20597;-93
2022/07/26 14:52:38;;;;;;;6.20;5.65;;;;;;;;;;5075973;28;20227;-89
2022/07/26 14:58:26;;;;;;;6.50;5.90;;;;;;;;;;5071105;28;20218;-86
2022/07/26 15:00:54;;;;;;;6.80;6.15;;;;;;;;;;5084570;28;20208;-90
2022/07/26 15:03:21;;;;;;;6.10;5.60;;;;;;;;;;5091896;28;20588;-85
2022/07/26 15:05:49;;;;;;;5.78;5.20;;;;;;;;;;5089340;28;20204;-92
2022/07/26 15:08:17;;;;;;;8.00;5.13;;;;;;;;;;5046938;28;20226;-96
2022/07/26 15:10:44;;;;;;;7.40;5.25;;;;;;;;;;5093362;28;20265;-84
2022/07/26 15:13:12;;;;;;;5.32;4.85;;;;;;;;;;5074526;28;20224;-95
2022/07/26 15:15:39;;;;;;;6.35;5.75;;;;;;;;;;5081227;22;20614;-90
2022/07/26 15:18:07;;;;;;;6.63;4.88;;;;;;;;;;5003928;28;20199;-96
2022/07/26 15:20:35;;;;;;;5.07;4.63;;;;;;;;;;5035142;28;20206;-84
2022/07/26 15:23:03;;;;;;;5.82;5.43;;;;;;;;;;5035266;28;20209;-88
2022/07/26 15:25:31;;;;;;;5.88;5.30;;;;;;;;;;5033704;28;20665;-86
2022/07/26 15:27:58;;;;;;;5.95;5.40;;;;;;;;;;5033109;28;20580;-85
2022/07/26 15:30:26;;;;;;;5.03;4.65;;;;;;;;;;5033299;28;20199;-89